Terminal Aerodrome Forecast
Issued by NWS Knoxville/Tri Cities, TN

Home | Current Version | Previous Version | Text Only | Print | Product List | Glossary On
Versions: 1 2 3 4 5 6 7 8 9 10 11 12 13 14
000
FTUS44 KMRX 031736
TAFTYS
TAF
KTYS 031736Z 0318/0418 03006KT P6SM BKN150
     FM040300 05005KT P6SM OVC080
     FM040800 05005KT 5SM -RA BR OVC040
     FM041000 06005KT 3SM -RA BR OVC020
     FM041200 03004KT 4SM RA BR OVC007=

USA.gov is the U.S. government's official web portal to all federal, state and local government web resources and services.